Time;durP1;ratioP1;P1;durP2;ratioP2;P2;SDS_P1;SDS_P2;PMS_P1;PMS_P2;Temp;Humidity;BMP_temperature;BMP_pressure;BME280_temperature;BME280_humidity;BME280_pressure;Samples;Min_cycle;Max_cycle;Signal;HPM_P1;HPM_P2
2022/11/21 00:00:55;;;;;;;4.37;2.40;;;;;;;;;;5086436;28;20237;-80
2022/11/21 00:03:23;;;;;;;4.63;2.63;;;;;;;;;;5057698;28;20613;-79
2022/11/21 00:05:49;;;;;;;4.53;2.37;;;;;;;;;;5090297;28;20585;-80
2022/11/21 00:08:18;;;;;;;3.50;2.30;;;;;;;;;;5088000;28;20208;-79
2022/11/21 00:10:44;;;;;;;6.17;2.37;;;;;;;;;;5075564;28;20225;-79
2022/11/21 00:13:14;;;;;;;4.73;2.50;;;;;;;;;;5092526;28;20263;-79
2022/11/21 00:15:41;;;;;;;5.70;2.50;;;;;;;;;;5061747;28;20220;-79
2022/11/21 00:18:08;;;;;;;4.97;2.60;;;;;;;;;;5100207;28;20180;-79
2022/11/21 00:20:35;;;;;;;5.23;2.43;;;;;;;;;;5062752;28;20244;-79
2022/11/21 00:23:02;;;;;;;6.03;2.50;;;;;;;;;;5088159;28;20208;-79
2022/11/21 00:25:28;;;;;;;3.93;2.33;;;;;;;;;;5094831;28;20212;-79
2022/11/21 00:27:54;;;;;;;4.73;2.37;;;;;;;;;;5096343;28;20185;-79
2022/11/21 00:30:20;;;;;;;5.53;2.30;;;;;;;;;;5082642;28;20768;-79
2022/11/21 00:32:47;;;;;;;5.47;2.20;;;;;;;;;;5095298;28;20313;-79
2022/11/21 00:35:13;;;;;;;4.93;2.40;;;;;;;;;;5093597;28;20256;-79
2022/11/21 00:37:39;;;;;;;4.20;2.10;;;;;;;;;;5088635;28;20187;-79
2022/11/21 00:40:05;;;;;;;4.13;1.80;;;;;;;;;;5094082;28;20169;-79
2022/11/21 00:42:34;;;;;;;5.00;2.00;;;;;;;;;;5081636;28;20184;-79
2022/11/21 00:45:00;;;;;;;4.73;2.03;;;;;;;;;;5094735;28;20183;-79
2022/11/21 00:47:26;;;;;;;6.77;1.90;;;;;;;;;;5087780;28;20177;-79
2022/11/21 00:49:53;;;;;;;2.43;1.50;;;;;;;;;;5078195;28;20193;-79
2022/11/21 00:52:19;;;;;;;4.20;1.83;;;;;;;;;;5096374;28;20180;-79
2022/11/21 00:54:45;;;;;;;4.73;2.30;;;;;;;;;;5099038;28;20221;-79
2022/11/21 00:57:11;;;;;;;4.77;1.80;;;;;;;;;;5077538;28;20193;-79
2022/11/21 00:59:37;;;;;;;3.07;1.90;;;;;;;;;;5083413;28;20176;-78
2022/11/21 01:02:04;;;;;;;3.83;1.77;;;;;;;;;;5081706;28;20604;-79
2022/11/21 01:04:31;;;;;;;5.13;1.70;;;;;;;;;;5103373;28;20245;-79
2022/11/21 01:06:57;;;;;;;4.80;1.97;;;;;;;;;;5089051;28;20201;-79
2022/11/21 01:09:23;;;;;;;5.60;2.07;;;;;;;;;;5093488;28;20176;-79
2022/11/21 01:11:49;;;;;;;4.93;1.90;;;;;;;;;;5084293;28;20188;-78
2022/11/21 01:14:15;;;;;;;3.63;1.40;;;;;;;;;;5093349;28;20178;-79
2022/11/21 01:16:42;;;;;;;3.83;1.73;;;;;;;;;;5084409;28;20687;-79
2022/11/21 01:19:08;;;;;;;5.30;2.20;;;;;;;;;;5079106;28;20172;-79
2022/11/21 01:21:34;;;;;;;3.47;1.70;;;;;;;;;;5096074;28;20175;-79
2022/11/21 01:24:01;;;;;;;4.30;1.70;;;;;;;;;;5092246;28;20188;-79
2022/11/21 01:26:28;;;;;;;4.47;1.83;;;;;;;;;;5086929;28;20271;-79
2022/11/21 01:28:54;;;;;;;3.87;1.60;;;;;;;;;;5094266;28;20177;-78
2022/11/21 01:31:25;;;;;;;5.30;2.07;;;;;;;;;;5077078;28;20233;-79
2022/11/21 01:33:52;;;;;;;3.60;2.03;;;;;;;;;;5099130;28;20262;-79
2022/11/21 01:36:19;;;;;;;5.20;2.50;;;;;;;;;;5076675;28;20212;-79
2022/11/21 01:38:47;;;;;;;4.73;1.83;;;;;;;;;;5092011;28;20271;-79
2022/11/21 01:41:15;;;;;;;3.13;2.00;;;;;;;;;;5094260;28;20179;-79
2022/11/21 01:43:41;;;;;;;4.23;1.70;;;;;;;;;;5076775;28;20177;-79
2022/11/21 01:46:07;;;;;;;4.57;1.80;;;;;;;;;;5098444;28;20212;-79
2022/11/21 01:48:39;;;;;;;4.70;1.67;;;;;;;;;;5072820;28;20189;-79
2022/11/21 01:51:19;;;;;;;4.33;1.87;;;;;;;;;;5092030;28;20195;-79
2022/11/21 01:53:50;;;;;;;5.77;2.00;;;;;;;;;;5080122;28;20181;-79
2022/11/21 01:56:16;;;;;;;3.70;1.77;;;;;;;;;;5054475;28;20228;-79
2022/11/21 01:58:43;;;;;;;3.93;1.70;;;;;;;;;;5058561;28;20173;-78
2022/11/21 02:01:09;;;;;;;4.70;1.80;;;;;;;;;;5058929;28;20181;-79
2022/11/21 02:03:38;;;;;;;4.90;1.80;;;;;;;;;;5090602;28;20184;-79
2022/11/21 02:06:05;;;;;;;5.63;2.27;;;;;;;;;;5067765;28;20199;-79
2022/11/21 02:08:32;;;;;;;5.43;1.90;;;;;;;;;;5061186;28;20205;-79
2022/11/21 02:11:13;;;;;;;4.47;2.40;;;;;;;;;;5089056;28;20180;-79
2022/11/21 02:13:39;;;;;;;7.33;2.27;;;;;;;;;;5086233;28;20179;-79
2022/11/21 02:16:06;;;;;;;4.27;1.97;;;;;;;;;;5069043;28;20309;-79
2022/11/21 02:18:32;;;;;;;4.87;1.70;;;;;;;;;;5054439;28;20219;-79
2022/11/21 02:21:02;;;;;;;9.13;2.60;;;;;;;;;;5090505;28;20184;-79
2022/11/21 02:23:40;;;;;;;5.17;1.97;;;;;;;;;;5082787;28;20181;-79
2022/11/21 02:26:06;;;;;;;4.23;2.10;;;;;;;;;;5087486;28;20212;-79
2022/11/21 02:28:32;;;;;;;6.90;2.47;;;;;;;;;;5075221;28;20291;-79
2022/11/21 02:30:58;;;;;;;7.93;2.30;;;;;;;;;;5080007;28;20640;-79
2022/11/21 02:33:24;;;;;;;6.60;2.23;;;;;;;;;;5081455;28;20726;-79
2022/11/21 02:35:58;;;;;;;7.13;2.70;;;;;;;;;;5084446;28;20208;-79
2022/11/21 02:38:32;;;;;;;6.10;1.90;;;;;;;;;;5053750;28;20258;-79
2022/11/21 02:40:58;;;;;;;7.73;3.00;;;;;;;;;;5058243;28;20215;-79
2022/11/21 02:43:39;;;;;;;4.73;2.60;;;;;;;;;;5069029;28;20181;-79
2022/11/21 02:46:05;;;;;;;4.80;2.10;;;;;;;;;;5080648;28;20268;-79
2022/11/21 02:48:32;;;;;;;4.90;2.23;;;;;;;;;;5098979;28;20188;-78
2022/11/21 02:50:58;;;;;;;6.13;2.67;;;;;;;;;;5082527;28;20181;-79
2022/11/21 02:53:24;;;;;;;5.13;2.27;;;;;;;;;;5086723;28;20180;-79
2022/11/21 02:55:50;;;;;;;3.87;1.83;;;;;;;;;;5089837;28;20208;-79
2022/11/21 02:58:16;;;;;;;5.73;2.20;;;;;;;;;;5087441;28;20178;-79
2022/11/21 03:00:42;;;;;;;7.37;1.97;;;;;;;;;;5051464;28;20185;-79
2022/11/21 03:03:09;;;;;;;5.73;1.90;;;;;;;;;;5114178;28;20234;-78
2022/11/21 03:05:35;;;;;;;4.10;1.80;;;;;;;;;;5097732;28;20471;-78
2022/11/21 03:08:01;;;;;;;6.37;2.30;;;;;;;;;;5097173;28;20207;-78
2022/11/21 03:10:27;;;;;;;4.70;2.00;;;;;;;;;;5076974;28;20664;-79
2022/11/21 03:13:00;;;;;;;4.80;1.90;;;;;;;;;;5094075;28;20244;-79
2022/11/21 03:15:27;;;;;;;5.17;2.07;;;;;;;;;;5083008;28;20207;-78
2022/11/21 03:17:53;;;;;;;4.73;2.10;;;;;;;;;;5061323;28;20724;-79
2022/11/21 03:20:20;;;;;;;4.97;2.00;;;;;;;;;;5102738;28;20175;-78
2022/11/21 03:22:46;;;;;;;5.67;1.97;;;;;;;;;;5101079;28;20185;-79
2022/11/21 03:25:12;;;;;;;6.20;2.00;;;;;;;;;;5119661;28;20230;-79
2022/11/21 03:27:38;;;;;;;4.00;1.70;;;;;;;;;;5106921;28;20210;-79
2022/11/21 03:30:05;;;;;;;3.43;1.90;;;;;;;;;;5089489;28;20173;-79
2022/11/21 03:32:31;;;;;;;4.73;1.73;;;;;;;;;;5085837;28;20595;-79
2022/11/21 03:34:57;;;;;;;4.33;2.30;;;;;;;;;;5100952;28;20205;-78
2022/11/21 03:37:23;;;;;;;3.70;1.80;;;;;;;;;;5102549;28;20180;-78
2022/11/21 03:39:49;;;;;;;6.00;1.80;;;;;;;;;;5105240;28;20196;-79
2022/11/21 03:42:15;;;;;;;5.80;2.20;;;;;;;;;;5069961;28;20173;-79
2022/11/21 03:44:42;;;;;;;3.00;1.70;;;;;;;;;;5081160;28;20186;-79
2022/11/21 03:47:08;;;;;;;6.63;2.37;;;;;;;;;;5091614;28;20223;-79
2022/11/21 03:49:34;;;;;;;7.97;2.83;;;;;;;;;;5094050;28;20187;-79
2022/11/21 03:52:01;;;;;;;4.43;2.27;;;;;;;;;;5104421;28;20196;-79
2022/11/21 03:54:27;;;;;;;4.77;2.10;;;;;;;;;;5088541;28;20273;-78
2022/11/21 03:56:53;;;;;;;4.00;2.10;;;;;;;;;;5076090;28;20204;-79
2022/11/21 03:59:20;;;;;;;7.73;3.67;;;;;;;;;;5100016;28;20484;-78
2022/11/21 04:01:46;;;;;;;8.50;3.53;;;;;;;;;;5084394;28;20181;-79
2022/11/21 04:04:12;;;;;;;5.43;2.30;;;;;;;;;;5081550;28;20180;-79
2022/11/21 04:06:38;;;;;;;4.43;2.50;;;;;;;;;;5079346;28;20266;-79
2022/11/21 04:09:07;;;;;;;3.27;2.17;;;;;;;;;;5082868;28;20212;-78
2022/11/21 04:11:33;;;;;;;5.47;2.80;;;;;;;;;;5071617;28;20205;-78
2022/11/21 04:13:59;;;;;;;6.13;2.60;;;;;;;;;;5071514;28;20185;-79
2022/11/21 04:16:26;;;;;;;3.43;2.33;;;;;;;;;;5102014;28;20214;-79
2022/11/21 04:18:52;;;;;;;4.67;2.47;;;;;;;;;;5099410;28;20182;-79
2022/11/21 04:21:18;;;;;;;5.17;2.17;;;;;;;;;;5078333;28;20180;-79
2022/11/21 04:23:44;;;;;;;5.67;2.40;;;;;;;;;;5078946;28;20648;-79
2022/11/21 04:26:10;;;;;;;3.30;1.97;;;;;;;;;;5098376;28;20712;-79
2022/11/21 04:28:37;;;;;;;11.63;8.03;;;;;;;;;;5089499;28;20192;-79
2022/11/21 04:31:04;;;;;;;7.90;4.77;;;;;;;;;;5089669;28;20261;-79
2022/11/21 04:33:30;;;;;;;4.63;2.90;;;;;;;;;;5078759;28;20720;-79
2022/11/21 04:35:57;;;;;;;3.53;2.63;;;;;;;;;;5082680;28;20352;-79
2022/11/21 04:38:23;;;;;;;4.87;2.20;;;;;;;;;;5099135;28;20712;-79
2022/11/21 04:40:49;;;;;;;4.93;2.20;;;;;;;;;;5085048;28;20173;-79
2022/11/21 04:43:15;;;;;;;3.53;1.90;;;;;;;;;;5089263;28;20183;-79
2022/11/21 04:45:43;;;;;;;4.27;2.00;;;;;;;;;;5094338;28;20737;-79
2022/11/21 04:48:10;;;;;;;3.27;1.83;;;;;;;;;;5082538;28;20200;-79
2022/11/21 04:50:36;;;;;;;3.90;1.93;;;;;;;;;;5101189;28;20173;-79
2022/11/21 04:53:03;;;;;;;3.90;1.90;;;;;;;;;;5078053;28;20711;-79
2022/11/21 04:55:30;;;;;;;3.30;1.80;;;;;;;;;;5082912;28;20749;-79
2022/11/21 04:57:57;;;;;;;2.97;1.70;;;;;;;;;;5094160;28;20656;-79
2022/11/21 05:00:24;;;;;;;2.63;1.80;;;;;;;;;;5075052;28;20633;-79
2022/11/21 05:02:50;;;;;;;4.70;1.90;;;;;;;;;;5072634;28;20195;-79
2022/11/21 05:05:16;;;;;;;3.87;2.20;;;;;;;;;;5095058;28;20736;-79
2022/11/21 05:07:42;;;;;;;3.80;1.87;;;;;;;;;;5095855;28;20196;-79
2022/11/21 05:10:09;;;;;;;3.17;1.90;;;;;;;;;;5097786;28;20319;-78
2022/11/21 05:15:20;;;;;;;4.60;2.20;;;;;;;;;;5101507;28;20710;-79
2022/11/21 05:17:46;;;;;;;3.10;2.00;;;;;;;;;;5086991;28;20187;-79
2022/11/21 05:20:14;;;;;;;4.60;2.00;;;;;;;;;;5075407;28;20184;-79
2022/11/21 05:22:40;;;;;;;4.53;1.77;;;;;;;;;;5088162;28;20196;-79
2022/11/21 05:25:06;;;;;;;3.47;2.10;;;;;;;;;;5088171;28;20192;-79
2022/11/21 05:27:33;;;;;;;5.87;2.00;;;;;;;;;;5079424;28;20380;-79
2022/11/21 05:29:59;;;;;;;2.97;2.10;;;;;;;;;;5085018;28;20789;-79
2022/11/21 05:32:25;;;;;;;3.90;1.83;;;;;;;;;;5084265;28;20290;-79
2022/11/21 05:34:51;;;;;;;4.73;1.70;;;;;;;;;;5086343;28;20193;-79
2022/11/21 05:37:18;;;;;;;2.93;1.80;;;;;;;;;;5081203;28;20187;-79
2022/11/21 05:39:44;;;;;;;2.83;1.67;;;;;;;;;;5091699;28;20178;-79
2022/11/21 05:42:10;;;;;;;5.00;1.80;;;;;;;;;;5083079;28;20656;-79
2022/11/21 05:44:37;;;;;;;3.10;1.60;;;;;;;;;;5075923;28;20223;-79
2022/11/21 05:47:03;;;;;;;3.80;1.80;;;;;;;;;;5073562;28;20208;-79
2022/11/21 05:49:29;;;;;;;2.73;1.70;;;;;;;;;;5087113;28;20194;-80
2022/11/21 05:51:55;;;;;;;3.57;1.90;;;;;;;;;;5083234;28;20216;-80
2022/11/21 05:54:31;;;;;;;2.90;1.77;;;;;;;;;;5092796;28;20183;-80
2022/11/21 05:56:57;;;;;;;3.60;2.40;;;;;;;;;;5076507;28;20213;-79
2022/11/21 05:59:23;;;;;;;3.70;1.63;;;;;;;;;;5101819;28;20546;-80
2022/11/21 06:04:35;;;;;;;3.60;1.90;;;;;;;;;;5089154;28;20192;-79
2022/11/21 06:07:07;;;;;;;3.87;1.90;;;;;;;;;;5093319;28;20257;-79
2022/11/21 06:09:33;;;;;;;3.60;1.90;;;;;;;;;;5097032;28;20190;-79
2022/11/21 06:11:59;;;;;;;4.97;2.30;;;;;;;;;;5063108;28;20203;-79
2022/11/21 06:14:26;;;;;;;4.23;2.13;;;;;;;;;;5115399;28;20178;-79
2022/11/21 06:16:52;;;;;;;4.10;3.00;;;;;;;;;;5090327;28;20221;-80
2022/11/21 06:19:18;;;;;;;3.60;2.53;;;;;;;;;;5082691;28;20238;-79
2022/11/21 06:21:44;;;;;;;4.47;2.60;;;;;;;;;;5091986;28;20188;-80
2022/11/21 06:24:11;;;;;;;4.77;2.60;;;;;;;;;;5078006;28;20583;-84
2022/11/21 06:26:37;;;;;;;4.90;2.23;;;;;;;;;;5068600;28;20209;-79
2022/11/21 06:29:03;;;;;;;4.47;2.40;;;;;;;;;;5063268;28;20192;-86
2022/11/21 06:31:30;;;;;;;4.47;2.33;;;;;;;;;;5090423;28;20192;-86
2022/11/21 06:33:58;;;;;;;2.60;2.20;;;;;;;;;;5046042;28;20621;-83
2022/11/21 06:36:24;;;;;;;5.20;2.60;;;;;;;;;;5065134;28;20207;-84
2022/11/21 06:38:52;;;;;;;4.63;2.70;;;;;;;;;;5083410;28;20173;-84
2022/11/21 06:41:23;;;;;;;4.00;2.03;;;;;;;;;;5064107;28;20179;-84
2022/11/21 06:43:50;;;;;;;3.33;2.20;;;;;;;;;;5092821;28;20209;-86
2022/11/21 06:46:16;;;;;;;6.30;2.77;;;;;;;;;;5062755;28;20223;-86
2022/11/21 06:48:43;;;;;;;4.97;2.40;;;;;;;;;;5088186;28;20184;-86
2022/11/21 06:51:15;;;;;;;3.77;2.13;;;;;;;;;;5068665;28;20194;-87
2022/11/21 06:53:45;;;;;;;3.23;2.20;;;;;;;;;;5063554;28;20196;-87
2022/11/21 06:56:11;;;;;;;4.50;2.03;;;;;;;;;;5073046;28;20266;-85
2022/11/21 06:58:37;;;;;;;2.47;1.93;;;;;;;;;;5070911;28;20250;-86
2022/11/21 07:01:12;;;;;;;5.23;2.03;;;;;;;;;;5054223;28;20185;-86
2022/11/21 07:03:38;;;;;;;3.90;2.10;;;;;;;;;;5062668;28;20223;-86
2022/11/21 07:06:05;;;;;;;3.17;1.90;;;;;;;;;;5076703;28;20251;-86
2022/11/21 07:08:34;;;;;;;4.03;2.30;;;;;;;;;;5081875;28;20185;-84
2022/11/21 07:11:01;;;;;;;3.80;2.03;;;;;;;;;;5063737;28;20621;-83
2022/11/21 07:13:31;;;;;;;3.13;2.27;;;;;;;;;;5111921;28;20164;-84
2022/11/21 07:16:04;;;;;;;4.27;2.73;;;;;;;;;;5073654;28;20203;-84
2022/11/21 07:18:31;;;;;;;4.53;2.40;;;;;;;;;;5094692;28;20237;-85
2022/11/21 07:21:04;;;;;;;3.47;2.33;;;;;;;;;;5061138;28;20544;-86
2022/11/21 07:23:33;;;;;;;2.90;2.13;;;;;;;;;;5070406;28;20658;-86
2022/11/21 07:26:03;;;;;;;5.77;2.40;;;;;;;;;;5039339;28;20224;-86
2022/11/21 07:28:29;;;;;;;3.97;2.63;;;;;;;;;;5071033;28;20181;-86
2022/11/21 07:30:56;;;;;;;4.57;2.20;;;;;;;;;;5066524;28;20736;-86
2022/11/21 07:33:22;;;;;;;3.50;2.30;;;;;;;;;;5063869;28;20183;-85
2022/11/21 07:35:49;;;;;;;6.33;2.57;;;;;;;;;;5086159;28;20208;-86
2022/11/21 07:38:15;;;;;;;3.97;2.17;;;;;;;;;;5040511;28;20177;-85
2022/11/21 07:40:41;;;;;;;6.10;2.43;;;;;;;;;;5058888;28;20186;-85
2022/11/21 07:43:10;;;;;;;5.70;2.30;;;;;;;;;;5054785;28;20301;-86
2022/11/21 07:45:36;;;;;;;6.50;2.57;;;;;;;;;;5066963;28;20216;-82
2022/11/21 07:48:04;;;;;;;4.80;2.60;;;;;;;;;;5090363;28;20184;-84
2022/11/21 07:50:31;;;;;;;6.80;2.40;;;;;;;;;;5083543;28;20196;-83
2022/11/21 07:52:58;;;;;;;5.67;2.73;;;;;;;;;;5061445;28;20181;-86
2022/11/21 07:55:24;;;;;;;5.63;2.10;;;;;;;;;;5049199;28;20211;-87
2022/11/21 07:57:58;;;;;;;4.67;2.43;;;;;;;;;;5053712;28;20189;-86
2022/11/21 08:00:25;;;;;;;2.93;2.30;;;;;;;;;;5054868;28;20297;-84
2022/11/21 08:02:52;;;;;;;6.07;2.63;;;;;;;;;;5051711;28;20196;-85
2022/11/21 08:05:18;;;;;;;4.07;2.47;;;;;;;;;;5060343;28;20292;-85
2022/11/21 08:07:45;;;;;;;5.30;2.90;;;;;;;;;;5068940;28;20494;-85
2022/11/21 08:10:12;;;;;;;4.07;2.80;;;;;;;;;;5083510;28;20189;-85
2022/11/21 08:12:41;;;;;;;5.03;2.67;;;;;;;;;;5055291;28;20204;-86
2022/11/21 08:15:07;;;;;;;6.50;3.17;;;;;;;;;;5040346;28;20185;-86
2022/11/21 08:17:34;;;;;;;5.67;2.77;;;;;;;;;;5057046;28;20188;-84
2022/11/21 08:20:01;;;;;;;4.83;2.50;;;;;;;;;;5040323;28;20233;-84
2022/11/21 08:22:28;;;;;;;5.63;2.67;;;;;;;;;;5039023;28;20177;-84
2022/11/21 08:24:54;;;;;;;5.43;2.63;;;;;;;;;;5069565;28;20189;-84
2022/11/21 08:27:21;;;;;;;5.33;2.30;;;;;;;;;;5064886;28;20266;-86
2022/11/21 08:29:48;;;;;;;7.70;2.53;;;;;;;;;;5096717;28;20189;-86
2022/11/21 08:32:14;;;;;;;5.70;2.70;;;;;;;;;;5060281;28;20561;-83
2022/11/21 08:34:40;;;;;;;5.63;2.90;;;;;;;;;;5093873;28;20188;-84
2022/11/21 08:37:07;;;;;;;7.53;2.97;;;;;;;;;;5074489;28;20208;-84
2022/11/21 08:39:33;;;;;;;7.03;2.60;;;;;;;;;;5065908;28;20185;-81
2022/11/21 08:42:03;;;;;;;4.93;2.50;;;;;;;;;;5076076;28;20191;-83
2022/11/21 08:44:30;;;;;;;5.80;2.40;;;;;;;;;;5058358;28;20180;-86
2022/11/21 08:47:02;;;;;;;7.87;2.53;;;;;;;;;;5062214;28;20672;-84
2022/11/21 08:49:28;;;;;;;7.13;2.80;;;;;;;;;;5065581;28;20245;-84
2022/11/21 08:51:55;;;;;;;6.17;2.60;;;;;;;;;;5056460;28;20192;-85
2022/11/21 08:54:22;;;;;;;5.57;2.30;;;;;;;;;;5062787;28;20180;-85
2022/11/21 08:56:49;;;;;;;6.30;2.80;;;;;;;;;;5044478;28;20201;-85
2022/11/21 08:59:16;;;;;;;6.00;2.60;;;;;;;;;;5075526;28;20187;-84
2022/11/21 09:01:45;;;;;;;6.17;2.50;;;;;;;;;;5062354;28;20185;-79
2022/11/21 09:04:11;;;;;;;4.70;2.20;;;;;;;;;;5074426;28;20220;-81
2022/11/21 09:06:38;;;;;;;6.23;2.30;;;;;;;;;;5038467;28;20231;-82
2022/11/21 09:09:05;;;;;;;4.97;2.10;;;;;;;;;;5084938;28;20184;-81
2022/11/21 09:11:31;;;;;;;7.17;2.20;;;;;;;;;;5086759;28;20177;-82
2022/11/21 09:19:28;;;;;;;5.20;2.13;;;;;;;;;;5062252;28;20754;-82
2022/11/21 09:21:58;;;;;;;7.10;2.40;;;;;;;;;;5080249;28;20180;-80
2022/11/21 09:24:24;;;;;;;6.00;2.20;;;;;;;;;;5086697;28;20268;-82
2022/11/21 09:26:50;;;;;;;5.00;2.17;;;;;;;;;;5060465;28;20652;-82
2022/11/21 09:29:16;;;;;;;5.07;2.00;;;;;;;;;;5074769;28;20253;-81
2022/11/21 09:31:43;;;;;;;7.60;2.40;;;;;;;;;;5059831;28;20200;-80
2022/11/21 09:34:09;;;;;;;5.10;2.13;;;;;;;;;;5088572;28;20188;-82
2022/11/21 09:36:35;;;;;;;3.90;2.10;;;;;;;;;;5057799;28;20291;-82
2022/11/21 09:39:04;;;;;;;5.27;2.17;;;;;;;;;;5094689;28;20197;-82
2022/11/21 09:41:52;;;;;;;6.00;2.40;;;;;;;;;;5075299;28;20176;-83
2022/11/21 09:44:33;;;;;;;4.23;2.20;;;;;;;;;;5093312;28;20184;-82
2022/11/21 09:47:18;;;;;;;4.50;2.10;;;;;;;;;;5092553;28;20229;-82
2022/11/21 09:49:46;;;;;;;4.20;1.80;;;;;;;;;;5068539;28;20753;-82
2022/11/21 09:52:15;;;;;;;4.67;2.17;;;;;;;;;;5095387;28;20238;-82
2022/11/21 09:54:46;;;;;;;4.07;2.17;;;;;;;;;;5060141;28;20658;-82
2022/11/21 09:57:14;;;;;;;4.37;2.00;;;;;;;;;;5078273;28;20248;-79
2022/11/21 09:59:44;;;;;;;4.33;1.90;;;;;;;;;;5061728;28;20184;-80
2022/11/21 10:02:14;;;;;;;4.83;2.37;;;;;;;;;;5065502;28;20223;-79
2022/11/21 10:04:45;;;;;;;5.37;2.47;;;;;;;;;;5062102;28;20760;-79
2022/11/21 10:07:14;;;;;;;4.50;2.00;;;;;;;;;;5065060;28;20683;-80
2022/11/21 10:09:59;;;;;;;5.53;1.90;;;;;;;;;;5077564;28;20201;-79
2022/11/21 10:12:45;;;;;;;6.40;2.20;;;;;;;;;;5077761;28;20705;-81
2022/11/21 10:15:21;;;;;;;3.03;1.90;;;;;;;;;;5066367;28;20688;-81
2022/11/21 10:18:07;;;;;;;4.30;1.90;;;;;;;;;;5078801;28;20535;-80
2022/11/21 10:20:41;;;;;;;5.37;2.27;;;;;;;;;;5070538;28;20678;-80
2022/11/21 10:23:26;;;;;;;6.17;2.40;;;;;;;;;;5092654;28;20639;-80
2022/11/21 10:26:14;;;;;;;3.87;1.60;;;;;;;;;;5072445;28;20278;-80
2022/11/21 10:28:47;;;;;;;4.77;1.57;;;;;;;;;;5068748;28;20230;-80
2022/11/21 10:31:14;;;;;;;3.73;1.83;;;;;;;;;;5048119;28;20196;-79
2022/11/21 10:33:41;;;;;;;6.27;2.13;;;;;;;;;;5077320;28;20207;-79
2022/11/21 10:36:22;;;;;;;6.73;2.00;;;;;;;;;;5078470;28;20208;-80
2022/11/21 10:38:50;;;;;;;3.83;1.87;;;;;;;;;;5078701;28;20238;-80
2022/11/21 10:41:25;;;;;;;4.03;1.80;;;;;;;;;;5058920;28;20204;-81
2022/11/21 10:46:56;;;;;;;3.97;2.10;;;;;;;;;;5075133;28;20220;-81
2022/11/21 10:49:24;;;;;;;4.87;1.90;;;;;;;;;;5060169;28;20206;-81
2022/11/21 10:51:56;;;;;;;5.30;1.83;;;;;;;;;;5095942;28;20173;-79
2022/11/21 10:54:32;;;;;;;3.83;1.80;;;;;;;;;;5058066;28;20241;-81
2022/11/21 10:57:00;;;;;;;8.20;2.20;;;;;;;;;;5075479;28;20313;-80
2022/11/21 10:59:29;;;;;;;4.50;1.87;;;;;;;;;;5073720;28;20636;-81
2022/11/21 11:01:58;;;;;;;6.07;2.10;;;;;;;;;;5056288;28;20236;-80
2022/11/21 11:04:26;;;;;;;3.87;1.80;;;;;;;;;;5077525;28;20184;-81
2022/11/21 11:06:52;;;;;;;5.47;2.20;;;;;;;;;;5059149;28;20203;-80
2022/11/21 11:09:27;;;;;;;4.67;1.77;;;;;;;;;;5071873;28;20185;-80
2022/11/21 11:11:54;;;;;;;8.53;2.23;;;;;;;;;;5072726;28;20171;-80
2022/11/21 11:14:30;;;;;;;4.63;1.77;;;;;;;;;;5081408;28;20201;-81
2022/11/21 11:16:57;;;;;;;3.57;2.03;;;;;;;;;;5068821;28;20341;-80
2022/11/21 11:19:26;;;;;;;4.50;1.70;;;;;;;;;;5072103;28;20177;-81
2022/11/21 11:21:52;;;;;;;3.63;1.77;;;;;;;;;;5092170;28;20184;-81
2022/11/21 11:24:25;;;;;;;5.67;1.93;;;;;;;;;;5090234;28;20220;-81
2022/11/21 11:26:54;;;;;;;4.33;1.90;;;;;;;;;;5085284;28;20231;-80
2022/11/21 11:29:22;;;;;;;4.80;1.80;;;;;;;;;;5057893;28;20267;-81
2022/11/21 11:32:07;;;;;;;5.10;1.60;;;;;;;;;;5070928;28;20189;-81
2022/11/21 11:35:03;;;;;;;4.50;1.67;;;;;;;;;;5073001;28;20254;-80
2022/11/21 11:37:32;;;;;;;3.53;1.67;;;;;;;;;;5068645;28;20792;-81
2022/11/21 11:40:07;;;;;;;4.23;1.83;;;;;;;;;;5088832;28;20188;-81
2022/11/21 11:48:15;;;;;;;4.63;2.00;;;;;;;;;;5093814;28;20185;-81
2022/11/21 11:50:53;;;;;;;3.87;1.57;;;;;;;;;;5096218;28;20726;-80
2022/11/21 11:53:21;;;;;;;6.27;1.90;;;;;;;;;;5095431;28;20188;-82
2022/11/21 11:55:53;;;;;;;6.37;2.07;;;;;;;;;;5055784;28;20217;-82
2022/11/21 11:58:36;;;;;;;4.07;1.87;;;;;;;;;;5090540;28;20246;-81
2022/11/21 12:01:06;;;;;;;5.27;1.60;;;;;;;;;;5077933;28;20184;-80
2022/11/21 12:03:42;;;;;;;6.33;1.70;;;;;;;;;;5076571;28;20276;-80
2022/11/21 12:06:15;;;;;;;6.23;1.80;;;;;;;;;;5074721;28;20351;-80
2022/11/21 12:08:45;;;;;;;4.70;1.80;;;;;;;;;;5091859;28;20180;-81
2022/11/21 12:12:22;;;;;;;4.20;1.77;;;;;;;;;;5075181;28;20173;-81
2022/11/21 12:15:47;;;;;;;5.97;1.80;;;;;;;;;;5060188;28;20196;-82
2022/11/21 12:17:08;;;;;;;4.73;1.80;;;;;;;;;;5075743;28;20354;-80
2022/11/21 12:19:36;;;;;;;6.37;1.90;;;;;;;;;;5091337;28;20212;-81
2022/11/21 12:22:05;;;;;;;3.13;1.47;;;;;;;;;;5069206;28;20234;-81
2022/11/21 12:24:34;;;;;;;3.73;1.90;;;;;;;;;;5078837;28;20260;-83
2022/11/21 12:27:10;;;;;;;5.93;1.93;;;;;;;;;;5083956;28;20385;-81
2022/11/21 12:29:58;;;;;;;7.13;2.00;;;;;;;;;;5046836;28;20197;-81
2022/11/21 12:32:24;;;;;;;6.53;2.30;;;;;;;;;;5075588;28;20281;-83
2022/11/21 12:35:15;;;;;;;6.00;1.90;;;;;;;;;;5076961;28;20184;-84
2022/11/21 12:38:05;;;;;;;4.57;1.90;;;;;;;;;;5067686;28;20406;-81
2022/11/21 12:40:48;;;;;;;7.93;1.90;;;;;;;;;;5073184;28;20275;-84
2022/11/21 12:43:17;;;;;;;5.17;2.00;;;;;;;;;;5067565;28;20186;-82
2022/11/21 12:45:49;;;;;;;5.23;1.83;;;;;;;;;;5059987;28;20205;-84
2022/11/21 12:54:43;;;;;;;6.03;1.70;;;;;;;;;;5060637;28;20184;-84
2022/11/21 12:57:16;;;;;;;4.67;1.93;;;;;;;;;;5074183;28;20238;-83
2022/11/21 13:00:18;;;;;;;7.67;2.20;;;;;;;;;;5092072;28;20182;-84
2022/11/21 13:02:56;;;;;;;5.43;1.80;;;;;;;;;;5040648;28;20190;-83
2022/11/21 13:05:27;;;;;;;6.57;1.90;;;;;;;;;;5064487;28;20218;-83
2022/11/21 13:07:58;;;;;;;4.23;1.97;;;;;;;;;;5089524;28;20547;-83
2022/11/21 13:10:25;;;;;;;5.07;2.20;;;;;;;;;;5091215;28;20169;-84
2022/11/21 13:12:57;;;;;;;6.30;2.77;;;;;;;;;;5086614;28;20235;-78
2022/11/21 13:15:36;;;;;;;7.83;2.37;;;;;;;;;;5060540;28;20203;-81
2022/11/21 13:18:12;;;;;;;9.17;2.40;;;;;;;;;;5074186;28;20187;-82
2022/11/21 13:20:39;;;;;;;5.63;2.00;;;;;;;;;;5054771;28;20181;-80
2022/11/21 13:23:29;;;;;;;6.83;2.30;;;;;;;;;;5065333;28;20594;-82
2022/11/21 13:25:55;;;;;;;7.60;2.77;;;;;;;;;;5095958;28;20739;-82
2022/11/21 13:28:21;;;;;;;6.23;2.73;;;;;;;;;;5061241;28;20262;-81
2022/11/21 13:30:48;;;;;;;5.90;2.33;;;;;;;;;;5076559;28;20683;-81
2022/11/21 13:33:33;;;;;;;6.37;2.30;;;;;;;;;;5095336;28;20181;-82
2022/11/21 13:35:59;;;;;;;6.87;2.40;;;;;;;;;;5084612;28;20207;-82
2022/11/21 13:38:26;;;;;;;5.77;2.13;;;;;;;;;;5095644;28;20597;-81
2022/11/21 13:43:37;;;;;;;6.70;2.10;;;;;;;;;;5094109;28;20183;-81
2022/11/21 13:46:04;;;;;;;5.77;1.93;;;;;;;;;;5075912;28;20253;-81
2022/11/21 13:48:30;;;;;;;4.33;1.50;;;;;;;;;;5082045;28;20169;-82
2022/11/21 13:51:02;;;;;;;4.80;1.80;;;;;;;;;;5092509;28;20658;-81
2022/11/21 13:53:38;;;;;;;3.67;1.67;;;;;;;;;;5081022;28;20193;-81
2022/11/21 13:56:04;;;;;;;6.40;2.20;;;;;;;;;;5073455;28;20594;-82
2022/11/21 13:58:40;;;;;;;5.60;2.27;;;;;;;;;;5074817;28;20192;-81
2022/11/21 14:01:18;;;;;;;4.73;1.90;;;;;;;;;;5091247;28;20168;-83
2022/11/21 14:03:44;;;;;;;7.27;1.80;;;;;;;;;;5096587;28;20616;-82
2022/11/21 14:06:13;;;;;;;6.80;1.90;;;;;;;;;;5094880;28;20196;-84
2022/11/21 14:08:39;;;;;;;3.77;1.90;;;;;;;;;;5092798;28;20161;-83
2022/11/21 14:11:43;;;;;;;5.37;2.13;;;;;;;;;;5074927;28;20221;-81
2022/11/21 14:14:10;;;;;;;8.27;2.40;;;;;;;;;;5075437;28;20200;-81
2022/11/21 14:16:40;;;;;;;6.03;1.93;;;;;;;;;;5094228;28;20223;-82
2022/11/21 14:19:11;;;;;;;3.07;1.50;;;;;;;;;;5094858;28;20176;-81
2022/11/21 14:21:38;;;;;;;4.73;2.00;;;;;;;;;;5058792;28;20187;-82
2022/11/21 14:24:13;;;;;;;3.43;1.87;;;;;;;;;;5077210;28;20204;-81
2022/11/21 14:26:40;;;;;;;6.53;1.80;;;;;;;;;;5091415;28;20218;-82
2022/11/21 14:29:16;;;;;;;7.27;2.00;;;;;;;;;;5048195;28;20212;-81
2022/11/21 14:31:46;;;;;;;3.90;1.57;;;;;;;;;;5070197;28;20169;-81
2022/11/21 14:34:13;;;;;;;8.27;2.50;;;;;;;;;;5059184;28;20691;-81
2022/11/21 14:36:40;;;;;;;7.23;2.00;;;;;;;;;;5063694;28;20239;-83
2022/11/21 14:39:08;;;;;;;4.50;1.60;;;;;;;;;;5100645;28;20183;-82
2022/11/21 14:41:36;;;;;;;5.20;1.97;;;;;;;;;;5103260;28;20654;-82
2022/11/21 14:44:04;;;;;;;8.13;2.47;;;;;;;;;;5082980;28;20174;-81
2022/11/21 14:46:40;;;;;;;7.97;2.73;;;;;;;;;;5069036;28;20291;-82
2022/11/21 14:49:16;;;;;;;7.40;2.23;;;;;;;;;;5082467;28;20207;-81
2022/11/21 14:51:46;;;;;;;7.03;2.20;;;;;;;;;;5090863;28;20237;-82
2022/11/21 14:54:14;;;;;;;5.33;1.80;;;;;;;;;;5070207;28;20194;-82
2022/11/21 14:56:41;;;;;;;5.87;2.00;;;;;;;;;;5098096;28;20593;-81
2022/11/21 14:59:13;;;;;;;9.03;2.07;;;;;;;;;;5073338;28;20181;-80
2022/11/21 15:01:39;;;;;;;6.93;1.60;;;;;;;;;;5071416;28;20656;-81
2022/11/21 15:04:07;;;;;;;6.33;2.30;;;;;;;;;;5097062;28;20187;-82
2022/11/21 15:06:40;;;;;;;5.07;2.10;;;;;;;;;;5056987;28;20224;-81
2022/11/21 15:09:11;;;;;;;7.47;2.73;;;;;;;;;;5059877;28;20177;-83
2022/11/21 15:11:40;;;;;;;7.37;2.70;;;;;;;;;;5075845;28;20198;-81
2022/11/21 15:14:12;;;;;;;7.93;2.70;;;;;;;;;;5071225;28;20188;-80
2022/11/21 15:16:38;;;;;;;6.70;2.47;;;;;;;;;;5071196;28;20208;-81
2022/11/21 15:19:10;;;;;;;6.70;2.70;;;;;;;;;;5116652;28;20540;-80
2022/11/21 15:21:36;;;;;;;5.27;2.40;;;;;;;;;;5075669;28;20165;-80
2022/11/21 15:24:21;;;;;;;7.70;2.70;;;;;;;;;;5093307;28;20221;-83